Time;durP1;ratioP1;P1;durP2;ratioP2;P2;SDS_P1;SDS_P2;PMS_P1;PMS_P2;Temp;Humidity;BMP_temperature;BMP_pressure;BME280_temperature;BME280_humidity;BME280_pressure;Samples;Min_cycle;Max_cycle;Signal;HPM_P1;HPM_P2
2022/08/24 00:01:11;;;;;;;11.47;10.40;;;21.50;1.00;;;;;;5088050;28;20455;-54
2022/08/24 00:03:38;;;;;;;12.90;11.80;;;21.50;1.00;;;;;;5086110;28;20431;-56
2022/08/24 00:06:11;;;;;;;11.27;10.37;;;21.50;1.00;;;;;;5083351;28;20462;-54
2022/08/24 00:08:37;;;;;;;12.47;11.47;;;21.50;1.00;;;;;;5085868;28;20993;-55
2022/08/24 00:13:33;;;;;;;12.23;11.23;;;21.50;1.00;;;;;;5087610;28;20949;-56
2022/08/24 00:15:58;;;;;;;12.83;11.73;;;21.40;1.00;;;;;;5087860;28;20929;-54
2022/08/24 00:18:24;;;;;;;12.10;11.20;;;21.30;1.00;;;;;;5086381;28;20508;-53
2022/08/24 00:20:50;;;;;;;12.90;11.87;;;21.30;1.00;;;;;;5086155;28;20198;-54
2022/08/24 00:23:16;;;;;;;12.43;11.23;;;21.30;1.00;;;;;;5086639;28;20425;-55
2022/08/24 00:25:42;;;;;;;13.00;11.73;;;21.30;1.00;;;;;;5080943;28;20639;-56
2022/08/24 00:28:08;;;;;;;12.60;11.40;;;21.40;1.00;;;;;;5086857;28;20613;-54
2022/08/24 00:30:34;;;;;;;20.60;12.70;;;;;;;;;;5085242;28;20992;-53
2022/08/24 00:33:00;;;;;;;13.03;11.73;;;21.40;1.00;;;;;;5089673;28;20603;-54
2022/08/24 00:35:27;;;;;;;12.63;11.53;;;21.40;1.00;;;;;;5086827;28;20455;-55
2022/08/24 00:37:53;;;;;;;13.30;12.00;;;21.40;1.00;;;;;;5086151;28;20445;-52
2022/08/24 00:40:35;;;;;;;13.70;12.37;;;21.40;1.00;;;;;;5091007;28;20430;-52
2022/08/24 00:43:03;;;;;;;11.57;10.67;;;21.40;1.00;;;;;;5089494;28;20447;-53
2022/08/24 00:45:50;;;;;;;12.43;11.33;;;21.40;1.00;;;;;;5091072;28;20496;-53
2022/08/24 00:48:21;;;;;;;12.10;11.07;;;21.40;1.00;;;;;;5091137;28;20419;-54
2022/08/24 00:50:54;;;;;;;12.57;11.30;;;21.40;1.00;;;;;;5091485;28;20509;-55
2022/08/24 00:53:33;;;;;;;12.37;11.47;;;21.40;1.00;;;;;;5091641;28;20444;-53
2022/08/24 00:56:07;;;;;;;12.37;11.20;;;21.40;1.00;;;;;;5088319;28;20443;-54
2022/08/24 00:58:56;;;;;;;15.33;13.83;;;21.40;1.00;;;;;;5091756;28;20415;-54
2022/08/24 01:01:22;;;;;;;13.70;12.60;;;21.50;1.00;;;;;;5090283;28;20472;-55
2022/08/24 01:03:48;;;;;;;13.13;12.00;;;21.50;1.00;;;;;;5089421;28;20461;-53
2022/08/24 01:06:14;;;;;;;14.07;12.43;;;21.40;1.00;;;;;;5088462;28;20969;-55
2022/08/24 01:08:40;;;;;;;14.07;12.67;;;21.40;1.00;;;;;;5087018;28;20187;-53
2022/08/24 01:11:13;;;;;;;13.63;12.53;;;21.40;1.00;;;;;;5087392;28;21077;-57
2022/08/24 01:13:45;;;;;;;14.00;12.80;;;21.30;1.00;;;;;;5088465;28;20284;-55
2022/08/24 01:16:13;;;;;;;12.80;11.80;;;21.40;1.00;;;;;;5088601;28;20501;-53
2022/08/24 01:18:48;;;;;;;13.10;12.00;;;21.40;1.00;;;;;;5090846;28;20423;-53
2022/08/24 01:21:16;;;;;;;13.40;12.00;;;21.40;1.00;;;;;;5089142;28;20513;-55
2022/08/24 01:23:56;;;;;;;13.43;12.00;;;21.40;1.00;;;;;;5084635;28;20961;-55
2022/08/24 01:26:39;;;;;;;13.83;12.53;;;21.50;1.00;;;;;;5086191;28;20423;-55
2022/08/24 01:29:30;;;;;;;13.53;12.23;;;21.50;1.00;;;;;;5087860;28;20453;-54
2022/08/24 01:31:57;;;;;;;13.80;12.40;;;21.40;1.00;;;;;;5089550;28;20482;-54
2022/08/24 01:34:23;;;;;;;13.60;12.50;;;21.40;1.00;;;;;;5089578;28;20456;-55
2022/08/24 01:36:56;;;;;;;13.07;11.97;;;21.40;1.00;;;;;;5090452;28;20769;-54
2022/08/24 01:39:30;;;;;;;13.43;12.20;;;21.40;1.00;;;;;;5090524;28;20226;-56
2022/08/24 01:41:56;;;;;;;13.50;12.20;;;21.50;1.00;;;;;;5089271;28;20924;-54
2022/08/24 01:44:23;;;;;;;14.67;12.87;;;21.40;1.00;;;;;;5090057;28;20762;-54
2022/08/24 01:46:52;;;;;;;13.20;11.90;;;21.30;1.00;;;;;;5091488;28;20439;-52
2022/08/24 01:49:19;;;;;;;14.40;12.30;;;21.30;1.00;;;;;;5091093;28;20449;-54
2022/08/24 01:51:45;;;;;;;12.90;11.80;;;21.20;1.00;;;;;;5089891;28;21008;-54
2022/08/24 01:54:12;;;;;;;13.27;12.20;;;21.20;1.00;;;;;;5089971;28;20545;-55
2022/08/24 01:56:38;;;;;;;12.87;11.87;;;21.30;1.00;;;;;;5089755;28;20183;-55
2022/08/24 01:59:05;;;;;;;12.30;11.20;;;21.30;1.00;;;;;;5089681;28;20498;-56
2022/08/24 02:01:36;;;;;;;14.90;13.60;;;21.30;1.00;;;;;;5086887;28;20800;-55
2022/08/24 02:04:03;;;;;;;14.67;13.37;;;21.20;1.00;;;;;;5090000;28;20889;-54
2022/08/24 02:06:29;;;;;;;13.67;12.40;;;21.10;1.00;;;;;;5088645;28;21125;-56
2022/08/24 02:08:54;;;;;;;13.87;12.60;;;21.10;1.00;;;;;;5089424;28;20480;-55
2022/08/24 02:11:20;;;;;;;13.83;12.47;;;21.10;1.00;;;;;;5090138;28;20183;-53
2022/08/24 02:13:46;;;;;;;13.60;12.30;;;21.00;1.00;;;;;;5088905;28;20265;-54
2022/08/24 02:16:13;;;;;;;14.40;13.00;;;21.10;1.00;;;;;;5090362;28;20991;-56
2022/08/24 02:18:41;;;;;;;13.00;11.90;;;21.10;1.00;;;;;;5088343;28;20221;-57
2022/08/24 02:21:08;;;;;;;13.73;12.50;;;21.10;1.00;;;;;;5089437;28;20468;-56
2022/08/24 02:23:36;;;;;;;13.00;11.60;;;21.10;1.00;;;;;;5088390;28;20444;-55
2022/08/24 02:26:09;;;;;;;13.37;11.97;;;21.10;1.00;;;;;;5088641;28;20451;-52
2022/08/24 02:28:36;;;;;;;14.03;12.60;;;21.00;1.00;;;;;;5089565;28;20737;-54
2022/08/24 02:31:06;;;;;;;13.90;12.70;;;21.10;1.00;;;;;;5086053;28;20445;-53
2022/08/24 02:33:37;;;;;;;12.93;11.77;;;21.10;1.00;;;;;;5086736;28;20430;-55
2022/08/24 02:36:07;;;;;;;12.87;11.67;;;21.00;1.00;;;;;;5089572;28;20423;-54
2022/08/24 02:38:33;;;;;;;12.90;11.67;;;20.90;1.00;;;;;;5089934;28;20469;-55
2022/08/24 02:40:59;;;;;;;13.47;12.23;;;20.80;1.00;;;;;;5089885;28;20989;-55
2022/08/24 02:43:25;;;;;;;13.73;12.17;;;20.80;1.00;;;;;;5088207;28;20197;-58
2022/08/24 02:45:51;;;;;;;14.17;12.80;;;20.70;1.00;;;;;;5088750;28;20454;-54
2022/08/24 02:48:17;;;;;;;15.83;13.30;;;20.60;1.00;;;;;;5087046;28;20274;-54
2022/08/24 02:50:46;;;;;;;17.50;13.17;;;20.50;1.00;;;;;;5089180;28;20448;-53
2022/08/24 02:53:15;;;;;;;13.93;12.60;;;20.40;1.00;;;;;;5086664;28;20493;-52
2022/08/24 02:55:43;;;;;;;14.50;13.00;;;20.40;1.00;;;;;;5087714;28;20407;-56
2022/08/24 02:58:11;;;;;;;15.20;13.60;;;20.40;1.00;;;;;;5088018;28;20473;-56
2022/08/24 03:00:38;;;;;;;15.57;13.90;;;20.30;1.00;;;;;;5085695;28;20431;-54
2022/08/24 03:03:05;;;;;;;14.20;12.90;;;20.30;1.00;;;;;;5085215;28;22295;-53
2022/08/24 03:05:31;;;;;;;14.90;13.57;;;20.20;1.00;;;;;;5089409;28;20480;-56
2022/08/24 03:07:56;;;;;;;15.40;13.60;;;20.30;1.00;;;;;;5088828;28;20756;-53
2022/08/24 03:10:22;;;;;;;15.03;13.53;;;20.20;1.00;;;;;;5088456;28;20218;-55
2022/08/24 03:12:49;;;;;;;14.83;13.30;;;20.10;1.00;;;;;;5086655;28;20183;-54
2022/08/24 03:15:15;;;;;;;16.20;14.67;;;20.00;1.00;;;;;;5081867;28;20535;-55
2022/08/24 03:17:41;;;;;;;19.43;13.50;;;20.00;1.00;;;;;;5085877;28;20444;-56
2022/08/24 03:20:12;;;;;;;14.37;13.07;;;20.00;1.00;;;;;;5086465;28;20496;-53
2022/08/24 03:22:39;;;;;;;14.23;13.03;;;20.00;1.00;;;;;;5084496;28;20768;-56
2022/08/24 03:25:05;;;;;;;15.67;14.10;;;20.10;1.00;;;;;;5084775;28;20850;-52
2022/08/24 03:27:31;;;;;;;15.87;14.23;;;20.00;1.00;;;;;;5085461;28;20445;-53
2022/08/24 03:29:56;;;;;;;15.83;13.47;;;20.00;1.00;;;;;;5083565;28;20422;-55
2022/08/24 03:32:22;;;;;;;15.17;13.87;;;20.00;1.00;;;;;;5087918;28;20257;-53
2022/08/24 03:34:48;;;;;;;14.63;13.30;;;20.00;1.00;;;;;;5086042;28;20191;-53
2022/08/24 03:37:15;;;;;;;17.33;15.27;;;20.00;1.00;;;;;;5086691;28;20666;-57
2022/08/24 03:39:42;;;;;;;15.90;13.37;;;20.00;1.00;;;;;;5088777;28;20321;-55
2022/08/24 03:42:07;;;;;;;15.60;14.20;;;20.00;1.00;;;;;;5088197;28;20423;-55
2022/08/24 03:44:33;;;;;;;15.00;13.60;;;20.00;1.00;;;;;;5086056;28;20453;-55
2022/08/24 03:46:59;;;;;;;14.90;13.70;;;20.10;1.00;;;;;;5086351;28;20179;-55
2022/08/24 03:49:24;;;;;;;15.40;13.90;;;20.10;1.00;;;;;;5087290;28;20525;-55
2022/08/24 03:51:50;;;;;;;14.70;13.30;;;20.10;1.00;;;;;;5086515;28;20411;-54
2022/08/24 03:54:16;;;;;;;15.30;13.90;;;20.10;1.00;;;;;;5085296;28;20179;-53
2022/08/24 03:56:42;;;;;;;15.80;14.40;;;20.10;1.00;;;;;;5087230;28;20187;-57
2022/08/24 03:59:09;;;;;;;15.30;13.70;;;20.10;1.00;;;;;;5087523;28;20505;-55
2022/08/24 04:01:35;;;;;;;16.57;14.57;;;20.20;1.00;;;;;;5086601;28;20190;-54
2022/08/24 04:04:01;;;;;;;14.87;13.57;;;20.20;1.00;;;;;;5084421;28;20432;-53
2022/08/24 04:06:27;;;;;;;15.50;14.10;;;20.20;1.00;;;;;;5088951;28;20426;-54
2022/08/24 04:08:54;;;;;;;15.90;14.07;;;20.10;1.00;;;;;;5090174;28;20180;-53
2022/08/24 04:11:23;;;;;;;16.60;14.23;;;20.30;1.00;;;;;;5090803;28;20510;-55
2022/08/24 04:13:51;;;;;;;14.20;13.00;;;20.30;1.00;;;;;;5091619;28;20513;-54
2022/08/24 04:16:19;;;;;;;17.13;12.90;;;20.30;1.00;;;;;;5090426;28;20452;-56
2022/08/24 04:18:46;;;;;;;15.20;13.70;;;20.40;1.00;;;;;;5091195;28;20490;-53
2022/08/24 04:21:20;;;;;;;16.83;13.17;;;20.40;1.00;;;;;;5091916;28;20452;-56
2022/08/24 04:23:47;;;;;;;15.13;13.53;;;20.50;1.00;;;;;;5089274;28;20572;-55
2022/08/24 04:26:14;;;;;;;14.90;13.40;;;20.60;1.00;;;;;;5073116;28;20999;-54
2022/08/24 04:28:40;;;;;;;14.70;13.13;;;20.50;1.00;;;;;;5091732;28;20440;-53
2022/08/24 04:31:05;;;;;;;15.47;13.97;;;20.50;1.00;;;;;;5091334;28;20447;-55
2022/08/24 04:33:31;;;;;;;15.07;13.63;;;20.60;1.00;;;;;;5092092;28;20273;-55
2022/08/24 04:35:57;;;;;;;14.20;12.90;;;20.70;1.00;;;;;;5090914;28;20218;-53
2022/08/24 04:38:23;;;;;;;14.77;13.57;;;20.60;1.00;;;;;;5092616;28;20214;-53
2022/08/24 04:40:49;;;;;;;17.03;15.23;;;20.60;1.00;;;;;;5090228;28;20240;-54
2022/08/24 04:43:16;;;;;;;16.43;14.80;;;20.50;1.00;;;;;;5092628;28;20456;-54
2022/08/24 04:45:46;;;;;;;15.57;14.03;;;20.50;1.00;;;;;;5090032;28;20209;-55
2022/08/24 04:48:14;;;;;;;16.47;14.87;;;20.50;1.00;;;;;;5088342;28;20802;-55
2022/08/24 04:50:42;;;;;;;15.13;13.80;;;20.60;1.00;;;;;;5073100;28;20423;-55
2022/08/24 04:53:09;;;;;;;15.93;14.07;;;20.50;1.00;;;;;;5090647;28;20440;-55
2022/08/24 04:55:43;;;;;;;15.47;14.17;;;20.60;1.00;;;;;;5091338;28;20559;-55
2022/08/24 04:58:11;;;;;;;14.90;13.60;;;20.60;1.00;;;;;;5089930;28;20492;-54
2022/08/24 05:00:37;;;;;;;15.43;14.03;;;20.60;1.00;;;;;;5091415;28;20411;-53
2022/08/24 05:03:02;;;;;;;16.07;14.57;;;20.70;1.00;;;;;;5091311;28;20494;-55
2022/08/24 05:05:28;;;;;;;17.03;14.23;;;20.70;1.00;;;;;;5086970;28;20585;-54
2022/08/24 05:07:54;;;;;;;15.10;13.63;;;20.70;1.00;;;;;;5089952;28;20191;-54
2022/08/24 05:10:21;;;;;;;15.60;14.20;;;20.70;1.00;;;;;;5074482;28;20186;-53
2022/08/24 05:12:46;;;;;;;15.30;13.93;;;20.70;1.00;;;;;;5092231;28;20191;-55
2022/08/24 05:15:12;;;;;;;13.73;12.43;;;20.80;1.00;;;;;;5090369;28;20423;-54
2022/08/24 05:17:39;;;;;;;14.90;13.47;;;20.90;1.00;;;;;;5090082;28;20682;-56
2022/08/24 05:20:08;;;;;;;13.47;12.17;;;20.90;1.00;;;;;;5091910;28;20498;-56
2022/08/24 05:22:33;;;;;;;14.77;13.37;;;21.10;1.00;;;;;;5090479;28;20422;-56
2022/08/24 05:24:59;;;;;;;13.80;12.40;;;21.30;1.00;;;;;;5090231;28;20981;-53
2022/08/24 05:27:25;;;;;;;15.53;13.93;;;21.30;1.00;;;;;;5092203;28;20554;-56
2022/08/24 05:29:55;;;;;;;14.87;13.43;;;21.50;1.00;;;;;;5072601;28;20193;-53
2022/08/24 05:32:20;;;;;;;14.23;13.00;;;21.50;1.00;;;;;;5087012;28;20440;-54
2022/08/24 05:34:46;;;;;;;15.57;14.00;;;21.50;1.00;;;;;;5085863;28;20423;-54
2022/08/24 05:37:27;;;;;;;14.73;13.43;;;21.50;1.00;;;;;;5091569;28;20195;-53
2022/08/24 05:39:52;;;;;;;15.70;14.30;;;21.50;1.00;;;;;;5091528;28;20438;-55
2022/08/24 05:42:18;;;;;;;14.67;13.27;;;21.40;1.00;;;;;;5091769;28;20771;-55
2022/08/24 05:44:44;;;;;;;17.30;13.50;;;21.50;1.00;;;;;;5091689;28;20206;-54
2022/08/24 05:47:09;;;;;;;16.87;14.33;;;21.50;1.00;;;;;;5091077;28;20232;-54
2022/08/24 05:49:36;;;;;;;14.93;13.40;;;21.60;1.00;;;;;;5091819;28;20523;-54
2022/08/24 05:52:02;;;;;;;18.30;16.00;;;21.60;1.00;;;;;;5090109;28;20632;-56
2022/08/24 05:54:27;;;;;;;15.67;14.20;;;21.60;1.00;;;;;;5091358;28;20419;-53
2022/08/24 05:56:53;;;;;;;19.00;13.10;;;21.70;1.00;;;;;;5089367;28;20532;-54
2022/08/24 05:59:21;;;;;;;15.87;14.50;;;21.70;1.00;;;;;;5091677;28;20628;-55
2022/08/24 06:01:47;;;;;;;16.77;14.97;;;21.70;1.00;;;;;;5089524;28;20411;-55
2022/08/24 06:04:13;;;;;;;16.07;14.57;;;21.80;1.00;;;;;;5091007;28;20407;-56
2022/08/24 06:06:38;;;;;;;15.33;13.73;;;21.80;1.00;;;;;;5090687;28;20411;-55
2022/08/24 06:09:04;;;;;;;17.30;14.93;;;21.90;1.00;;;;;;5091199;28;20445;-56
2022/08/24 06:11:34;;;;;;;16.97;15.20;;;21.70;1.00;;;;;;5090756;28;20179;-53
2022/08/24 06:14:06;;;;;;;17.30;15.70;;;21.80;1.00;;;;;;5090456;28;20528;-54
2022/08/24 06:16:37;;;;;;;17.50;15.77;;;21.80;1.00;;;;;;5089227;28;20452;-54
2022/08/24 06:19:04;;;;;;;16.93;15.03;;;21.70;1.00;;;;;;5091128;28;20486;-55
2022/08/24 06:21:31;;;;;;;16.27;14.73;;;21.70;1.00;;;;;;5090875;28;20433;-54
2022/08/24 06:23:57;;;;;;;17.60;15.80;;;21.60;1.00;;;;;;5090148;28;20779;-54
2022/08/24 06:29:08;;;;;;;16.70;15.00;;;21.50;1.00;;;;;;5090534;28;20472;-53
2022/08/24 06:31:39;;;;;;;16.80;14.60;;;21.70;1.00;;;;;;5091116;28;20786;-54
2022/08/24 06:34:06;;;;;;;18.60;16.87;;;21.80;1.00;;;;;;5090706;28;20174;-56
2022/08/24 06:36:32;;;;;;;17.93;16.20;;;21.90;1.00;;;;;;5090859;28;20415;-55
2022/08/24 06:38:58;;;;;;;16.50;14.80;;;22.00;1.00;;;;;;5090520;28;20792;-53
2022/08/24 06:41:25;;;;;;;16.40;15.00;;;22.20;1.00;;;;;;5091037;28;20186;-56
2022/08/24 06:43:51;;;;;;;14.80;13.57;;;22.30;1.00;;;;;;5090114;28;20441;-53
2022/08/24 06:46:16;;;;;;;18.03;14.80;;;22.50;1.00;;;;;;5090941;28;20829;-55
2022/08/24 06:48:42;;;;;;;17.80;16.00;;;22.60;1.00;;;;;;5089766;28;20456;-54
2022/08/24 06:51:18;;;;;;;17.33;15.57;;;22.70;1.00;;;;;;5090630;28;20174;-56
2022/08/24 06:53:44;;;;;;;17.73;16.13;;;22.50;1.00;;;;;;5087759;28;20202;-54
2022/08/24 06:56:11;;;;;;;15.97;14.37;;;22.40;1.00;;;;;;5089849;28;20428;-54
2022/08/24 06:58:37;;;;;;;17.63;14.67;;;22.30;1.00;;;;;;5085885;28;20498;-52
2022/08/24 07:01:18;;;;;;;14.97;13.73;;;22.40;1.00;;;;;;5088579;28;20424;-56
2022/08/24 07:03:44;;;;;;;18.10;16.40;;;22.30;1.00;;;;;;5089259;28;20451;-54
2022/08/24 07:06:11;;;;;;;16.83;14.50;;;22.40;1.00;;;;;;5088230;28;20456;-54
2022/08/24 07:08:37;;;;;;;15.83;13.27;;;22.50;1.00;;;;;;5089233;28;20481;-53
2022/08/24 07:11:07;;;;;;;17.53;15.83;;;22.70;1.00;;;;;;5089374;28;20415;-55
2022/08/24 07:13:33;;;;;;;17.00;15.17;;;23.00;1.00;;;;;;5087230;28;20479;-55
2022/08/24 07:15:59;;;;;;;17.10;15.60;;;23.10;1.00;;;;;;5090033;28;20447;-55
2022/08/24 07:18:25;;;;;;;15.50;14.00;;;23.50;1.00;;;;;;5089783;28;20205;-54
2022/08/24 07:20:51;;;;;;;16.07;14.40;;;23.50;1.00;;;;;;5089166;28;20523;-54
2022/08/24 07:23:18;;;;;;;15.60;14.30;;;23.80;1.00;;;;;;5089305;28;20187;-53
2022/08/24 07:25:45;;;;;;;15.97;14.30;;;24.10;1.00;;;;;;5089038;28;20202;-54
2022/08/24 07:28:11;;;;;;;15.47;13.80;;;24.20;1.00;;;;;;5089414;28;20436;-54
2022/08/24 07:30:38;;;;;;;14.57;13.13;;;24.40;1.00;;;;;;5089758;28;20467;-55
2022/08/24 07:33:04;;;;;;;14.43;13.10;;;24.50;1.00;;;;;;5089529;28;20926;-53
2022/08/24 07:35:33;;;;;;;15.30;13.70;;;24.50;1.00;;;;;;5090071;28;20435;-55
2022/08/24 07:38:00;;;;;;;14.30;12.93;;;24.50;1.00;;;;;;5088778;28;20644;-55
2022/08/24 07:40:27;;;;;;;14.90;12.77;;;24.60;1.00;;;;;;5088519;28;20451;-54
2022/08/24 07:42:54;;;;;;;14.33;13.03;;;24.80;1.00;;;;;;5089022;28;20419;-52
2022/08/24 07:45:21;;;;;;;13.63;12.43;;;24.80;1.00;;;;;;5088750;28;20518;-54
2022/08/24 07:47:47;;;;;;;13.90;12.50;;;24.50;1.00;;;;;;5089825;28;20415;-56
2022/08/24 07:50:14;;;;;;;13.63;12.40;;;24.80;1.00;;;;;;5071660;28;20516;-55
2022/08/24 07:52:41;;;;;;;15.37;13.87;;;24.80;1.00;;;;;;5090066;28;20916;-53
2022/08/24 07:55:08;;;;;;;15.23;13.57;;;24.80;1.00;;;;;;5086030;28;20411;-55
2022/08/24 07:57:38;;;;;;;14.40;13.10;;;24.60;1.00;;;;;;5089096;28;21011;-55
2022/08/24 08:00:05;;;;;;;14.87;13.23;;;24.50;1.00;;;;;;5088961;28;20471;-54
2022/08/24 08:02:32;;;;;;;14.73;12.90;;;;;;;;;;5089253;28;20444;-55
2022/08/24 08:04:58;;;;;;;13.63;12.33;;;24.40;1.00;;;;;;5089138;28;20517;-54
2022/08/24 08:07:24;;;;;;;14.70;13.20;;;24.50;1.00;;;;;;5089189;28;20468;-55
2022/08/24 08:09:51;;;;;;;15.63;12.63;;;24.60;1.00;;;;;;5089445;28;20432;-55
2022/08/24 08:12:18;;;;;;;14.10;12.80;;;24.70;1.00;;;;;;5088392;28;20433;-54
2022/08/24 08:14:45;;;;;;;15.93;14.17;;;24.80;1.00;;;;;;5088682;28;20467;-55
2022/08/24 08:17:12;;;;;;;13.20;11.67;;;24.70;1.00;;;;;;5087980;28;20445;-55
2022/08/24 08:19:37;;;;;;;16.07;13.27;;;24.70;1.00;;;;;;5087945;28;20450;-54
2022/08/24 08:24:48;;;;;;;14.93;13.47;;;25.10;1.00;;;;;;5087274;28;20552;-54
2022/08/24 08:27:15;;;;;;;14.53;12.93;;;25.20;1.00;;;;;;5087444;28;20427;-55
2022/08/24 08:29:41;;;;;;;14.83;13.43;;;25.40;1.00;;;;;;5089050;28;20432;-59
2022/08/24 08:32:13;;;;;;;14.90;13.40;;;25.60;1.00;;;;;;5088707;28;20437;-55
2022/08/24 08:34:39;;;;;;;13.87;12.70;;;25.70;1.00;;;;;;5085493;28;20949;-55
2022/08/24 08:37:05;;;;;;;13.53;12.33;;;25.80;1.00;;;;;;5089290;28;20498;-56
2022/08/24 08:39:31;;;;;;;12.50;11.50;;;25.70;1.00;;;;;;5089151;28;20227;-53
2022/08/24 08:42:09;;;;;;;16.13;14.63;;;25.90;1.00;;;;;;5087894;28;20192;-55
2022/08/24 08:44:58;;;;;;;14.90;12.47;;;26.00;1.00;;;;;;5088967;28;20488;-55
2022/08/24 08:47:45;;;;;;;12.20;11.00;;;26.10;1.00;;;;;;5089156;28;20494;-54
2022/08/24 08:50:20;;;;;;;13.77;12.37;;;26.50;1.00;;;;;;5088517;28;20454;-53
2022/08/24 08:53:26;;;;;;;14.40;12.17;;;26.60;1.00;;;;;;5089107;28;20462;-54
2022/08/24 08:56:18;;;;;;;19.67;12.33;;;27.00;1.00;;;;;;5010533;28;20460;-54
2022/08/24 08:59:00;;;;;;;11.60;10.63;;;27.20;1.00;;;;;;5014948;28;20787;-55
2022/08/24 09:01:38;;;;;;;14.63;11.23;;;27.40;1.00;;;;;;5076019;28;20448;-55
2022/08/24 09:04:28;;;;;;;12.77;11.13;;;27.50;1.00;;;;;;5089909;28;20490;-55
2022/08/24 09:07:12;;;;;;;12.53;11.43;;;27.20;1.00;;;;;;5092822;28;20443;-54
2022/08/24 09:09:50;;;;;;;12.87;11.17;;;27.00;1.00;;;;;;5090772;28;20523;-54
2022/08/24 09:12:34;;;;;;;15.50;11.50;;;27.00;1.00;;;;;;5091772;28;20476;-54
2022/08/24 09:15:06;;;;;;;14.03;9.77;;;26.90;1.00;;;;;;5092206;28;20436;-54
2022/08/24 09:18:03;;;;;;;11.90;10.70;;;26.70;1.00;;;;;;5092424;28;20543;-54
2022/08/24 09:21:06;;;;;;;11.93;8.90;;;27.00;1.00;;;;;;5092141;28;20524;-55
2022/08/24 09:24:00;;;;;;;10.53;9.63;;;27.30;1.00;;;;;;5089426;28;21602;-54
2022/08/24 09:26:31;;;;;;;10.53;9.50;;;27.30;1.00;;;;;;5091391;28;20457;-56
2022/08/24 09:29:09;;;;;;;11.23;10.13;;;27.40;1.00;;;;;;5091605;28;20751;-56
2022/08/24 09:31:46;;;;;;;15.37;9.10;;;27.10;1.00;;;;;;5092340;28;20443;-55
2022/08/24 09:34:23;;;;;;;10.97;9.97;;;27.10;1.00;;;;;;5091827;28;20505;-54
2022/08/24 09:37:06;;;;;;;11.70;10.57;;;27.20;1.00;;;;;;5092237;28;20845;-54
2022/08/24 09:39:58;;;;;;;10.53;9.23;;;27.50;1.00;;;;;;5088375;28;21068;-55
2022/08/24 09:42:39;;;;;;;10.03;9.03;;;27.80;1.00;;;;;;5091700;28;20415;-54
2022/08/24 09:45:29;;;;;;;9.87;9.07;;;27.90;1.00;;;;;;5091631;28;20431;-54
2022/08/24 09:48:23;;;;;;;12.97;9.60;;;28.10;1.00;;;;;;5089836;28;20486;-55
2022/08/24 09:51:21;;;;;;;10.00;8.67;;;28.00;1.00;;;;;;5088709;28;20463;-55
2022/08/24 09:53:59;;;;;;;10.67;9.67;;;27.70;1.00;;;;;;5091952;28;20433;-55
2022/08/24 09:56:39;;;;;;;10.27;9.20;;;27.70;1.00;;;;;;5091811;28;20430;-54
2022/08/24 09:59:26;;;;;;;11.73;9.40;;;27.60;1.00;;;;;;5091422;28;20919;-55
2022/08/24 10:02:11;;;;;;;10.50;9.40;;;27.70;1.00;;;;;;5088567;28;20452;-55
2022/08/24 10:05:21;;;;;;;10.10;8.27;;;28.10;1.00;;;;;;5090641;28;20556;-55
2022/08/24 10:08:10;;;;;;;11.50;9.07;;;28.50;1.00;;;;;;5043100;28;20949;-55
2022/08/24 10:10:43;;;;;;;12.47;10.10;;;28.90;1.00;;;;;;5047813;28;20439;-55
2022/08/24 10:13:54;;;;;;;9.33;8.63;;;29.20;1.00;;;;;;5078434;28;20447;-53
2022/08/24 10:16:29;;;;;;;9.43;8.63;;;29.50;1.00;;;;;;5066676;28;20532;-53
2022/08/24 10:19:14;;;;;;;11.20;9.10;;;29.70;1.00;;;;;;5090810;28;20489;-55
2022/08/24 10:21:43;;;;;;;9.23;8.43;;;29.70;1.00;;;;;;5089060;28;20436;-56
2022/08/24 10:24:32;;;;;;;9.67;8.60;;;29.00;1.00;;;;;;5089746;28;20420;-55
2022/08/24 10:27:04;;;;;;;8.70;8.03;;;28.60;1.00;;;;;;5091348;28;20527;-56
2022/08/24 10:29:56;;;;;;;9.43;8.30;;;28.40;1.00;;;;;;5091266;28;20425;-54
2022/08/24 10:32:41;;;;;;;10.43;9.43;;;28.80;1.00;;;;;;5086667;28;20944;-55
2022/08/24 10:35:14;;;;;;;9.33;8.53;;;29.00;1.00;;;;;;5088952;28;20945;-53
2022/08/24 10:40:49;;;;;;;10.07;9.07;;;29.40;1.00;;;;;;5028775;28;20551;-54
2022/08/24 10:43:42;;;;;;;11.33;9.67;;;29.30;1.00;;;;;;5050310;28;20810;-55
2022/08/24 10:46:31;;;;;;;10.10;9.23;;;29.40;1.00;;;;;;5049171;28;20301;-53
2022/08/24 10:49:11;;;;;;;10.00;8.97;;;29.10;1.00;;;;;;5044275;28;20538;-53
2022/08/24 10:51:57;;;;;;;9.47;8.57;;;28.90;1.00;;;;;;5048673;28;20459;-54
2022/08/24 10:54:23;;;;;;;10.40;9.50;;;29.20;1.00;;;;;;5049705;28;20438;-54
2022/08/24 10:57:04;;;;;;;10.10;9.20;;;29.10;1.00;;;;;;5049672;28;20453;-55
2022/08/24 10:59:54;;;;;;;10.53;9.53;;;29.10;1.00;;;;;;5049189;28;20294;-54
2022/08/24 11:02:29;;;;;;;9.87;8.87;;;28.30;1.00;;;;;;5049077;28;20542;-55
2022/08/24 11:05:00;;;;;;;9.97;9.10;;;27.70;1.00;;;;;;5047996;28;20535;-54
2022/08/24 11:07:27;;;;;;;11.00;9.43;;;27.50;1.00;;;;;;5049956;28;20533;-55
2022/08/24 11:09:59;;;;;;;10.33;9.30;;;27.50;1.00;;;;;;5049634;28;20782;-54
2022/08/24 11:12:27;;;;;;;11.53;9.10;;;27.50;1.00;;;;;;5050027;28;20409;-55
2022/08/24 11:14:57;;;;;;;9.97;9.07;;;27.70;1.00;;;;;;5049085;28;20436;-54
2022/08/24 11:17:29;;;;;;;11.33;8.87;;;27.90;1.00;;;;;;5049302;28;20504;-54
2022/08/24 11:19:57;;;;;;;10.20;8.07;;;28.00;1.00;;;;;;5049962;28;20434;-54
2022/08/24 11:22:39;;;;;;;11.50;8.57;;;27.90;1.00;;;;;;5048261;28;20442;-54
2022/08/24 11:25:25;;;;;;;10.13;8.33;;;27.70;1.00;;;;;;5049526;28;20532;-55
2022/08/24 11:28:16;;;;;;;10.27;8.67;;;27.30;1.00;;;;;;5050015;28;20449;-53
2022/08/24 11:30:42;;;;;;;10.90;8.40;;;27.20;1.00;;;;;;5023145;28;20418;-56
2022/08/24 11:33:26;;;;;;;9.80;8.90;;;27.20;1.00;;;;;;5049706;28;20484;-55
2022/08/24 11:35:52;;;;;;;11.30;9.20;;;27.40;1.00;;;;;;5049097;28;20199;-54
2022/08/24 11:38:21;;;;;;;12.13;8.80;;;27.50;1.00;;;;;;5054993;28;20464;-54
2022/08/24 11:40:56;;;;;;;14.13;9.80;;;27.70;1.00;;;;;;5086354;28;20211;-54
2022/08/24 11:43:50;;;;;;;11.00;9.90;;;27.90;1.00;;;;;;5089713;28;20444;-54
2022/08/24 11:46:31;;;;;;;11.33;10.33;;;28.20;1.00;;;;;;5088108;28;20464;-55
2022/08/24 11:49:11;;;;;;;12.10;10.03;;;28.40;1.00;;;;;;5088994;28;20429;-54
2022/08/24 11:51:51;;;;;;;10.33;9.33;;;28.60;1.00;;;;;;5089763;28;20834;-54
2022/08/24 11:54:42;;;;;;;12.57;8.97;;;27.80;1.00;;;;;;5088427;28;20561;-55
2022/08/24 11:57:16;;;;;;;13.83;9.37;;;29.60;1.00;;;;;;5087269;28;20440;-55
2022/08/24 11:59:54;;;;;;;9.97;8.97;;;29.70;1.00;;;;;;5087968;28;20459;-54
2022/08/24 12:02:32;;;;;;;10.10;9.03;;;29.70;1.00;;;;;;5088143;28;20945;-56
2022/08/24 12:05:13;;;;;;;9.77;8.83;;;29.80;1.00;;;;;;5089562;28;20550;-56
2022/08/24 12:08:03;;;;;;;11.70;9.20;;;29.60;1.00;;;;;;5086197;28;20846;-55
2022/08/24 12:10:44;;;;;;;10.23;9.10;;;29.50;1.00;;;;;;5089559;28;20433;-55
2022/08/24 12:13:39;;;;;;;10.20;9.20;;;29.60;1.00;;;;;;5089622;28;20520;-54
2022/08/24 12:16:26;;;;;;;9.90;9.10;;;29.30;1.00;;;;;;5086759;28;20966;-55
2022/08/24 12:18:59;;;;;;;11.10;10.00;;;28.60;1.00;;;;;;5087187;28;20443;-54
2022/08/24 12:21:30;;;;;;;11.07;9.97;;;28.50;1.00;;;;;;5089935;28;20799;-55
2022/08/24 12:24:04;;;;;;;11.80;9.20;;;28.60;1.00;;;;;;5087662;28;20476;-56
2022/08/24 12:26:52;;;;;;;10.60;9.60;;;28.70;1.00;;;;;;5087921;28;20475;-55
2022/08/24 12:29:41;;;;;;;10.50;9.60;;;28.80;1.00;;;;;;5093090;28;20942;-54
2022/08/24 12:32:14;;;;;;;11.80;10.63;;;29.00;1.00;;;;;;5081760;28;20531;-55
2022/08/24 12:34:49;;;;;;;11.67;10.57;;;29.30;1.00;;;;;;5093316;28;20957;-55
2022/08/24 12:37:21;;;;;;;10.67;9.57;;;29.80;1.00;;;;;;5093129;28;20515;-55
2022/08/24 12:39:58;;;;;;;9.50;8.60;;;29.90;1.00;;;;;;5091723;28;20472;-55
2022/08/24 12:42:28;;;;;;;9.10;8.30;;;30.00;1.00;;;;;;5092516;28;20414;-54
2022/08/24 12:45:00;;;;;;;9.03;8.23;;;30.00;1.00;;;;;;5092614;28;20444;-55
2022/08/24 12:47:36;;;;;;;10.17;9.27;;;30.30;1.00;;;;;;5088411;28;20449;-54
2022/08/24 12:50:18;;;;;;;10.03;9.07;;;30.70;1.00;;;;;;5090653;28;20436;-54
2022/08/24 12:53:00;;;;;;;12.00;8.80;;;30.80;1.00;;;;;;5089502;28;20425;-55
2022/08/24 12:55:47;;;;;;;11.30;10.23;;;30.90;1.00;;;;;;5091366;28;20444;-55
2022/08/24 12:58:35;;;;;;;10.30;8.60;;;31.20;1.00;;;;;;5090902;28;20472;-56
2022/08/24 13:01:10;;;;;;;10.00;9.10;;;31.40;1.00;;;;;;5091138;28;20456;-54
2022/08/24 13:03:38;;;;;;;10.10;9.10;;;31.60;1.00;;;;;;5090496;28;20519;-54
2022/08/24 13:06:15;;;;;;;9.70;8.90;;;31.60;1.00;;;;;;5092150;28;20460;-55
2022/08/24 13:08:44;;;;;;;10.37;9.47;;;31.20;1.00;;;;;;5088578;28;20494;-56
2022/08/24 13:11:34;;;;;;;10.40;9.50;;;30.80;1.00;;;;;;5089939;28;20833;-54
2022/08/24 13:14:06;;;;;;;10.20;9.20;;;30.60;1.00;;;;;;5092128;28;20441;-55
2022/08/24 13:16:50;;;;;;;9.90;9.00;;;30.60;1.00;;;;;;5091331;28;20445;-53